sensor_id;sensor_type;location;lat;lon;timestamp;P1;durP1;ratioP1;P2;durP2;ratioP2
12435;SDS011;6282;51.440;6.938;2022-08-21T00:00:54;1999.90;;;999.90;;
12435;SDS011;6282;51.440;6.938;2022-08-21T00:03:21;1999.90;;;999.90;;
12435;SDS011;6282;51.440;6.938;2022-08-21T00:05:49;1999.90;;;999.90;;
12435;SDS011;6282;51.440;6.938;2022-08-21T00:08:17;1999.90;;;999.90;;
12435;SDS011;6282;51.440;6.938;2022-08-21T00:10:44;1999.90;;;999.90;;
12435;SDS011;6282;51.440;6.938;2022-08-21T00:13:12;1999.90;;;999.90;;
12435;SDS011;6282;51.440;6.938;2022-08-21T00:15:40;1999.90;;;999.90;;
12435;SDS011;6282;51.440;6.938;2022-08-21T00:18:09;1999.90;;;999.90;;
12435;SDS011;6282;51.440;6.938;2022-08-21T00:20:37;1999.90;;;999.90;;
12435;SDS011;6282;51.440;6.938;2022-08-21T00:23:04;1999.90;;;999.90;;
12435;SDS011;6282;51.440;6.938;2022-08-21T00:25:32;1999.90;;;999.90;;
12435;SDS011;6282;51.440;6.938;2022-08-21T00:27:59;1999.90;;;999.90;;
12435;SDS011;6282;51.440;6.938;2022-08-21T00:30:27;1999.90;;;999.90;;
12435;SDS011;6282;51.440;6.938;2022-08-21T00:32:54;1999.90;;;999.90;;
12435;SDS011;6282;51.440;6.938;2022-08-21T00:35:25;1999.90;;;999.90;;
12435;SDS011;6282;51.440;6.938;2022-08-21T00:37:53;1999.90;;;999.90;;
12435;SDS011;6282;51.440;6.938;2022-08-21T00:40:22;1999.90;;;999.90;;
12435;SDS011;6282;51.440;6.938;2022-08-21T00:43:05;1999.90;;;999.90;;
12435;SDS011;6282;51.440;6.938;2022-08-21T00:45:34;1999.90;;;999.90;;
12435;SDS011;6282;51.440;6.938;2022-08-21T00:48:01;1999.90;;;999.90;;
12435;SDS011;6282;51.440;6.938;2022-08-21T00:50:31;1999.90;;;999.90;;
12435;SDS011;6282;51.440;6.938;2022-08-21T00:53:00;1999.90;;;999.90;;
12435;SDS011;6282;51.440;6.938;2022-08-21T00:55:28;1999.90;;;999.90;;
12435;SDS011;6282;51.440;6.938;2022-08-21T00:57:56;1999.90;;;999.90;;
12435;SDS011;6282;51.440;6.938;2022-08-21T01:00:26;1999.90;;;999.90;;
12435;SDS011;6282;51.440;6.938;2022-08-21T01:02:55;1999.90;;;999.90;;
12435;SDS011;6282;51.440;6.938;2022-08-21T01:05:23;1999.90;;;999.90;;
12435;SDS011;6282;51.440;6.938;2022-08-21T01:07:51;1999.90;;;999.90;;
12435;SDS011;6282;51.440;6.938;2022-08-21T01:10:19;1999.90;;;999.90;;
12435;SDS011;6282;51.440;6.938;2022-08-21T01:12:46;1999.90;;;999.90;;
12435;SDS011;6282;51.440;6.938;2022-08-21T01:15:13;1999.90;;;999.90;;
12435;SDS011;6282;51.440;6.938;2022-08-21T01:17:41;1999.90;;;999.90;;
12435;SDS011;6282;51.440;6.938;2022-08-21T01:20:09;1999.90;;;999.90;;
12435;SDS011;6282;51.440;6.938;2022-08-21T01:22:38;1999.90;;;999.90;;
12435;SDS011;6282;51.440;6.938;2022-08-21T01:25:06;1999.90;;;999.90;;
12435;SDS011;6282;51.440;6.938;2022-08-21T01:27:35;1999.90;;;999.90;;
12435;SDS011;6282;51.440;6.938;2022-08-21T01:30:04;1999.90;;;999.90;;
12435;SDS011;6282;51.440;6.938;2022-08-21T01:32:35;1980.32;;;999.90;;
12435;SDS011;6282;51.440;6.938;2022-08-21T01:35:02;1930.70;;;999.90;;
12435;SDS011;6282;51.440;6.938;2022-08-21T01:37:31;1863.75;;;999.90;;
12435;SDS011;6282;51.440;6.938;2022-08-21T01:39:59;1907.38;;;999.90;;
12435;SDS011;6282;51.440;6.938;2022-08-21T01:42:27;1936.40;;;999.90;;
12435;SDS011;6282;51.440;6.938;2022-08-21T01:44:53;1940.20;;;999.90;;
12435;SDS011;6282;51.440;6.938;2022-08-21T01:47:21;1703.25;;;999.90;;
12435;SDS011;6282;51.440;6.938;2022-08-21T01:49:48;1716.20;;;999.90;;
12435;SDS011;6282;51.440;6.938;2022-08-21T01:52:15;1803.70;;;999.90;;
12435;SDS011;6282;51.440;6.938;2022-08-21T01:54:43;1827.85;;;999.90;;
12435;SDS011;6282;51.440;6.938;2022-08-21T01:57:11;1653.53;;;999.90;;
12435;SDS011;6282;51.440;6.938;2022-08-21T01:59:39;1665.60;;;999.90;;
12435;SDS011;6282;51.440;6.938;2022-08-21T02:02:06;1583.57;;;999.90;;
12435;SDS011;6282;51.440;6.938;2022-08-21T02:04:33;1510.40;;;999.90;;
12435;SDS011;6282;51.440;6.938;2022-08-21T02:07:00;1534.97;;;999.90;;
12435;SDS011;6282;51.440;6.938;2022-08-21T02:09:27;1605.78;;;999.90;;
12435;SDS011;6282;51.440;6.938;2022-08-21T02:11:55;1430.85;;;999.90;;
12435;SDS011;6282;51.440;6.938;2022-08-21T02:14:23;1439.20;;;999.90;;
12435;SDS011;6282;51.440;6.938;2022-08-21T02:16:50;1515.93;;;999.90;;
12435;SDS011;6282;51.440;6.938;2022-08-21T02:19:17;1543.00;;;999.90;;
12435;SDS011;6282;51.440;6.938;2022-08-21T02:21:43;1420.68;;;999.90;;
12435;SDS011;6282;51.440;6.938;2022-08-21T02:24:11;1502.88;;;999.90;;
12435;SDS011;6282;51.440;6.938;2022-08-21T02:26:38;1493.80;;;999.90;;
12435;SDS011;6282;51.440;6.938;2022-08-21T02:29:05;1414.28;;;999.90;;
12435;SDS011;6282;51.440;6.938;2022-08-21T02:31:33;1298.10;;;999.90;;
12435;SDS011;6282;51.440;6.938;2022-08-21T02:34:00;1306.97;;;999.90;;
12435;SDS011;6282;51.440;6.938;2022-08-21T02:36:27;1246.55;;;999.90;;
12435;SDS011;6282;51.440;6.938;2022-08-21T02:38:54;1317.30;;;999.90;;
12435;SDS011;6282;51.440;6.938;2022-08-21T02:41:22;1383.00;;;999.90;;
12435;SDS011;6282;51.440;6.938;2022-08-21T02:43:49;1376.90;;;999.90;;
12435;SDS011;6282;51.440;6.938;2022-08-21T02:46:17;1273.45;;;999.90;;
12435;SDS011;6282;51.440;6.938;2022-08-21T02:48:46;1440.55;;;999.90;;
12435;SDS011;6282;51.440;6.938;2022-08-21T02:51:14;1451.90;;;999.90;;
12435;SDS011;6282;51.440;6.938;2022-08-21T02:53:43;1345.70;;;999.90;;
12435;SDS011;6282;51.440;6.938;2022-08-21T02:56:12;1332.70;;;999.90;;
12435;SDS011;6282;51.440;6.938;2022-08-21T02:58:42;1178.43;;;999.90;;
12435;SDS011;6282;51.440;6.938;2022-08-21T03:01:11;1232.00;;;999.90;;
12435;SDS011;6282;51.440;6.938;2022-08-21T03:03:38;1247.70;;;999.90;;
12435;SDS011;6282;51.440;6.938;2022-08-21T03:06:10;1176.93;;;999.90;;
12435;SDS011;6282;51.440;6.938;2022-08-21T03:08:44;1173.70;;;999.90;;
12435;SDS011;6282;51.440;6.938;2022-08-21T03:11:12;1221.72;;;999.90;;
12435;SDS011;6282;51.440;6.938;2022-08-21T03:13:39;1238.40;;;999.90;;
12435;SDS011;6282;51.440;6.938;2022-08-21T03:16:07;1379.35;;;999.90;;
12435;SDS011;6282;51.440;6.938;2022-08-21T03:18:34;1354.18;;;999.90;;
12435;SDS011;6282;51.440;6.938;2022-08-21T03:21:01;1217.57;;;999.90;;
12435;SDS011;6282;51.440;6.938;2022-08-21T03:23:30;1198.63;;;999.90;;
12435;SDS011;6282;51.440;6.938;2022-08-21T03:25:57;1352.88;;;999.90;;
12435;SDS011;6282;51.440;6.938;2022-08-21T03:28:24;1226.90;;;999.90;;
12435;SDS011;6282;51.440;6.938;2022-08-21T03:30:52;1342.32;;;999.90;;
12435;SDS011;6282;51.440;6.938;2022-08-21T03:33:19;1310.97;;;999.90;;
12435;SDS011;6282;51.440;6.938;2022-08-21T03:35:47;1263.47;;;999.90;;
12435;SDS011;6282;51.440;6.938;2022-08-21T03:38:23;1290.22;;;999.90;;
12435;SDS011;6282;51.440;6.938;2022-08-21T03:40:51;1186.07;;;999.90;;
12435;SDS011;6282;51.440;6.938;2022-08-21T03:43:18;1195.47;;;999.90;;
12435;SDS011;6282;51.440;6.938;2022-08-21T03:45:45;1496.05;;;999.90;;
12435;SDS011;6282;51.440;6.938;2022-08-21T03:48:12;1540.18;;;999.90;;
12435;SDS011;6282;51.440;6.938;2022-08-21T03:50:40;1438.30;;;999.90;;
12435;SDS011;6282;51.440;6.938;2022-08-21T03:53:09;1483.32;;;999.90;;
12435;SDS011;6282;51.440;6.938;2022-08-21T03:55:38;1475.43;;;999.90;;
12435;SDS011;6282;51.440;6.938;2022-08-21T03:58:06;1484.20;;;999.90;;
12435;SDS011;6282;51.440;6.938;2022-08-21T04:00:33;1480.68;;;999.90;;
12435;SDS011;6282;51.440;6.938;2022-08-21T04:03:00;1462.07;;;999.90;;
12435;SDS011;6282;51.440;6.938;2022-08-21T04:05:27;1397.78;;;999.90;;
12435;SDS011;6282;51.440;6.938;2022-08-21T04:07:55;1476.38;;;999.90;;
12435;SDS011;6282;51.440;6.938;2022-08-21T04:10:24;1409.15;;;999.90;;
12435;SDS011;6282;51.440;6.938;2022-08-21T04:12:52;1388.68;;;999.90;;
12435;SDS011;6282;51.440;6.938;2022-08-21T04:15:22;1403.93;;;999.90;;
12435;SDS011;6282;51.440;6.938;2022-08-21T04:17:50;1398.85;;;999.90;;
12435;SDS011;6282;51.440;6.938;2022-08-21T04:20:18;1309.75;;;999.90;;
12435;SDS011;6282;51.440;6.938;2022-08-21T04:22:46;1321.10;;;999.90;;
12435;SDS011;6282;51.440;6.938;2022-08-21T04:25:15;1319.82;;;999.90;;
12435;SDS011;6282;51.440;6.938;2022-08-21T04:27:43;1337.30;;;999.90;;
12435;SDS011;6282;51.440;6.938;2022-08-21T04:30:12;1323.90;;;999.90;;
12435;SDS011;6282;51.440;6.938;2022-08-21T04:32:43;1295.32;;;999.90;;
12435;SDS011;6282;51.440;6.938;2022-08-21T04:35:11;1310.97;;;999.90;;
12435;SDS011;6282;51.440;6.938;2022-08-21T04:37:40;1226.18;;;999.90;;
12435;SDS011;6282;51.440;6.938;2022-08-21T04:40:07;1195.82;;;999.90;;
12435;SDS011;6282;51.440;6.938;2022-08-21T04:42:40;1194.63;;;999.90;;
12435;SDS011;6282;51.440;6.938;2022-08-21T04:45:09;1277.45;;;999.90;;
12435;SDS011;6282;51.440;6.938;2022-08-21T04:47:40;1201.13;;;999.90;;
12435;SDS011;6282;51.440;6.938;2022-08-21T04:50:08;1216.15;;;999.90;;
12435;SDS011;6282;51.440;6.938;2022-08-21T04:52:35;1188.07;;;999.90;;
12435;SDS011;6282;51.440;6.938;2022-08-21T04:55:02;1298.93;;;999.90;;
12435;SDS011;6282;51.440;6.938;2022-08-21T04:57:30;1206.05;;;999.90;;
12435;SDS011;6282;51.440;6.938;2022-08-21T04:59:57;1196.15;;;999.90;;
12435;SDS011;6282;51.440;6.938;2022-08-21T05:02:24;1182.60;;;999.90;;
12435;SDS011;6282;51.440;6.938;2022-08-21T05:04:52;1153.32;;;999.90;;
12435;SDS011;6282;51.440;6.938;2022-08-21T05:07:22;1174.95;;;999.90;;
12435;SDS011;6282;51.440;6.938;2022-08-21T05:09:52;1189.38;;;999.90;;
12435;SDS011;6282;51.440;6.938;2022-08-21T05:12:20;1158.82;;;999.90;;
12435;SDS011;6282;51.440;6.938;2022-08-21T05:14:48;1126.75;;;999.90;;
12435;SDS011;6282;51.440;6.938;2022-08-21T05:17:15;1152.65;;;999.90;;
12435;SDS011;6282;51.440;6.938;2022-08-21T05:19:41;1128.18;;;999.90;;
12435;SDS011;6282;51.440;6.938;2022-08-21T05:22:08;1128.85;;;999.90;;
12435;SDS011;6282;51.440;6.938;2022-08-21T05:24:36;1133.72;;;999.90;;
12435;SDS011;6282;51.440;6.938;2022-08-21T05:27:04;1154.20;;;999.90;;
12435;SDS011;6282;51.440;6.938;2022-08-21T05:29:32;1124.22;;;999.90;;
12435;SDS011;6282;51.440;6.938;2022-08-21T05:31:59;1132.57;;;999.90;;
12435;SDS011;6282;51.440;6.938;2022-08-21T05:34:26;1170.78;;;999.90;;
12435;SDS011;6282;51.440;6.938;2022-08-21T05:36:53;1219.55;;;999.90;;
12435;SDS011;6282;51.440;6.938;2022-08-21T05:39:20;1212.45;;;999.90;;
12435;SDS011;6282;51.440;6.938;2022-08-21T05:41:48;1241.70;;;999.90;;
12435;SDS011;6282;51.440;6.938;2022-08-21T05:44:15;1244.65;;;999.90;;
12435;SDS011;6282;51.440;6.938;2022-08-21T05:46:41;1241.60;;;999.90;;
12435;SDS011;6282;51.440;6.938;2022-08-21T05:49:08;1281.65;;;999.90;;
12435;SDS011;6282;51.440;6.938;2022-08-21T05:51:36;1304.55;;;999.90;;
12435;SDS011;6282;51.440;6.938;2022-08-21T05:54:05;1311.18;;;999.90;;
12435;SDS011;6282;51.440;6.938;2022-08-21T05:56:32;1330.07;;;999.90;;
12435;SDS011;6282;51.440;6.938;2022-08-21T05:59:01;1364.82;;;999.90;;
12435;SDS011;6282;51.440;6.938;2022-08-21T06:01:28;1476.72;;;999.90;;
12435;SDS011;6282;51.440;6.938;2022-08-21T06:03:55;1464.53;;;999.90;;
12435;SDS011;6282;51.440;6.938;2022-08-21T06:06:21;1471.25;;;999.90;;
12435;SDS011;6282;51.440;6.938;2022-08-21T06:08:48;1552.88;;;999.90;;
12435;SDS011;6282;51.440;6.938;2022-08-21T06:11:15;1579.38;;;999.90;;
12435;SDS011;6282;51.440;6.938;2022-08-21T06:13:42;1588.22;;;999.90;;
12435;SDS011;6282;51.440;6.938;2022-08-21T06:16:11;1558.28;;;999.90;;
12435;SDS011;6282;51.440;6.938;2022-08-21T06:18:40;1624.03;;;999.90;;
12435;SDS011;6282;51.440;6.938;2022-08-21T06:21:07;1679.95;;;999.90;;
12435;SDS011;6282;51.440;6.938;2022-08-21T06:23:36;1645.75;;;999.90;;
12435;SDS011;6282;51.440;6.938;2022-08-21T06:26:03;1759.25;;;999.90;;
12435;SDS011;6282;51.440;6.938;2022-08-21T06:28:32;1758.65;;;999.90;;
12435;SDS011;6282;51.440;6.938;2022-08-21T06:31:00;1708.82;;;999.90;;
12435;SDS011;6282;51.440;6.938;2022-08-21T06:33:28;1774.53;;;999.90;;
12435;SDS011;6282;51.440;6.938;2022-08-21T06:35:55;1856.53;;;999.90;;
12435;SDS011;6282;51.440;6.938;2022-08-21T06:38:22;1856.32;;;999.90;;
12435;SDS011;6282;51.440;6.938;2022-08-21T06:40:49;1863.82;;;999.90;;
12435;SDS011;6282;51.440;6.938;2022-08-21T06:43:16;1906.57;;;999.90;;
12435;SDS011;6282;51.440;6.938;2022-08-21T06:45:50;1919.45;;;999.90;;
12435;SDS011;6282;51.440;6.938;2022-08-21T06:48:17;1885.95;;;999.90;;
12435;SDS011;6282;51.440;6.938;2022-08-21T06:50:45;1927.82;;;999.90;;
12435;SDS011;6282;51.440;6.938;2022-08-21T06:53:13;1892.60;;;999.90;;
12435;SDS011;6282;51.440;6.938;2022-08-21T06:55:42;1952.30;;;999.90;;
12435;SDS011;6282;51.440;6.938;2022-08-21T06:58:09;1990.05;;;999.90;;
12435;SDS011;6282;51.440;6.938;2022-08-21T07:00:38;1977.97;;;999.90;;
12435;SDS011;6282;51.440;6.938;2022-08-21T07:03:06;1969.05;;;999.90;;
12435;SDS011;6282;51.440;6.938;2022-08-21T07:05:33;1871.63;;;999.90;;
12435;SDS011;6282;51.440;6.938;2022-08-21T07:08:02;1999.90;;;999.90;;
12435;SDS011;6282;51.440;6.938;2022-08-21T07:10:29;1999.90;;;999.90;;
12435;SDS011;6282;51.440;6.938;2022-08-21T07:12:56;1999.90;;;999.90;;
12435;SDS011;6282;51.440;6.938;2022-08-21T07:15:22;1999.90;;;999.90;;
12435;SDS011;6282;51.440;6.938;2022-08-21T07:17:49;1999.90;;;999.90;;
12435;SDS011;6282;51.440;6.938;2022-08-21T07:20:16;1999.90;;;999.90;;
12435;SDS011;6282;51.440;6.938;2022-08-21T07:22:43;1999.90;;;999.90;;
12435;SDS011;6282;51.440;6.938;2022-08-21T07:25:11;1999.90;;;999.90;;
12435;SDS011;6282;51.440;6.938;2022-08-21T07:27:38;1999.90;;;999.90;;
12435;SDS011;6282;51.440;6.938;2022-08-21T07:30:06;1999.90;;;999.90;;
12435;SDS011;6282;51.440;6.938;2022-08-21T07:32:33;1999.90;;;999.90;;
12435;SDS011;6282;51.440;6.938;2022-08-21T07:35:00;1999.90;;;999.90;;
12435;SDS011;6282;51.440;6.938;2022-08-21T07:37:27;1999.90;;;999.90;;
12435;SDS011;6282;51.440;6.938;2022-08-21T07:39:54;1999.90;;;999.90;;
12435;SDS011;6282;51.440;6.938;2022-08-21T07:42:22;1999.90;;;999.90;;
12435;SDS011;6282;51.440;6.938;2022-08-21T07:44:49;1999.90;;;999.90;;
12435;SDS011;6282;51.440;6.938;2022-08-21T07:47:16;1999.90;;;999.90;;
12435;SDS011;6282;51.440;6.938;2022-08-21T07:49:43;1999.90;;;999.90;;
12435;SDS011;6282;51.440;6.938;2022-08-21T07:52:13;1999.90;;;999.90;;
12435;SDS011;6282;51.440;6.938;2022-08-21T07:54:40;1999.90;;;999.90;;
12435;SDS011;6282;51.440;6.938;2022-08-21T07:57:07;1999.90;;;999.90;;
12435;SDS011;6282;51.440;6.938;2022-08-21T07:59:35;1999.90;;;999.90;;
12435;SDS011;6282;51.440;6.938;2022-08-21T08:02:07;1999.90;;;999.90;;
12435;SDS011;6282;51.440;6.938;2022-08-21T08:04:34;1999.90;;;999.90;;
12435;SDS011;6282;51.440;6.938;2022-08-21T08:07:01;1999.90;;;999.90;;
12435;SDS011;6282;51.440;6.938;2022-08-21T08:09:28;1999.90;;;999.90;;
12435;SDS011;6282;51.440;6.938;2022-08-21T08:11:56;1999.90;;;999.90;;
12435;SDS011;6282;51.440;6.938;2022-08-21T08:14:23;1999.90;;;999.90;;
12435;SDS011;6282;51.440;6.938;2022-08-21T08:16:51;1999.90;;;999.90;;
12435;SDS011;6282;51.440;6.938;2022-08-21T08:19:18;1999.90;;;999.90;;
12435;SDS011;6282;51.440;6.938;2022-08-21T08:21:45;1999.90;;;999.90;;
12435;SDS011;6282;51.440;6.938;2022-08-21T08:26:45;1999.90;;;999.90;;
12435;SDS011;6282;51.440;6.938;2022-08-21T08:29:12;1999.90;;;999.90;;
12435;SDS011;6282;51.440;6.938;2022-08-21T08:31:39;1999.90;;;999.90;;
12435;SDS011;6282;51.440;6.938;2022-08-21T08:34:07;1999.90;;;999.90;;
12435;SDS011;6282;51.440;6.938;2022-08-21T08:36:35;1999.90;;;999.90;;
12435;SDS011;6282;51.440;6.938;2022-08-21T08:39:04;1999.90;;;999.90;;
12435;SDS011;6282;51.440;6.938;2022-08-21T08:41:33;1999.90;;;999.90;;
12435;SDS011;6282;51.440;6.938;2022-08-21T08:44:02;1999.90;;;999.90;;
12435;SDS011;6282;51.440;6.938;2022-08-21T08:46:33;1999.90;;;999.90;;
12435;SDS011;6282;51.440;6.938;2022-08-21T08:49:24;1999.90;;;999.90;;
12435;SDS011;6282;51.440;6.938;2022-08-21T08:51:57;1999.90;;;999.90;;
12435;SDS011;6282;51.440;6.938;2022-08-21T08:54:28;1999.90;;;999.90;;
12435;SDS011;6282;51.440;6.938;2022-08-21T08:57:02;1999.90;;;999.90;;
12435;SDS011;6282;51.440;6.938;2022-08-21T08:59:34;1999.90;;;999.90;;
12435;SDS011;6282;51.440;6.938;2022-08-21T09:02:06;1999.90;;;999.90;;
12435;SDS011;6282;51.440;6.938;2022-08-21T09:04:38;1999.90;;;999.90;;
12435;SDS011;6282;51.440;6.938;2022-08-21T09:07:09;1999.90;;;999.90;;
12435;SDS011;6282;51.440;6.938;2022-08-21T09:09:46;1999.90;;;999.90;;
12435;SDS011;6282;51.440;6.938;2022-08-21T09:12:25;1999.90;;;999.90;;
12435;SDS011;6282;51.440;6.938;2022-08-21T09:15:01;1999.90;;;999.90;;
12435;SDS011;6282;51.440;6.938;2022-08-21T09:17:37;1999.90;;;999.90;;
12435;SDS011;6282;51.440;6.938;2022-08-21T09:20:19;1999.90;;;999.90;;
12435;SDS011;6282;51.440;6.938;2022-08-21T09:22:59;1999.90;;;999.90;;
12435;SDS011;6282;51.440;6.938;2022-08-21T09:25:38;1999.90;;;999.90;;
12435;SDS011;6282;51.440;6.938;2022-08-21T09:28:12;1999.90;;;999.90;;
12435;SDS011;6282;51.440;6.938;2022-08-21T09:30:39;1999.90;;;999.90;;
12435;SDS011;6282;51.440;6.938;2022-08-21T09:33:07;1999.90;;;999.90;;
12435;SDS011;6282;51.440;6.938;2022-08-21T09:35:47;1999.90;;;999.90;;
12435;SDS011;6282;51.440;6.938;2022-08-21T09:38:23;1999.90;;;999.90;;
12435;SDS011;6282;51.440;6.938;2022-08-21T09:40:56;1999.90;;;999.90;;
12435;SDS011;6282;51.440;6.938;2022-08-21T09:43:27;1999.90;;;999.90;;
12435;SDS011;6282;51.440;6.938;2022-08-21T09:46:02;1999.90;;;999.90;;
12435;SDS011;6282;51.440;6.938;2022-08-21T09:48:40;1999.90;;;999.90;;
12435;SDS011;6282;51.440;6.938;2022-08-21T09:51:11;1999.90;;;999.90;;
12435;SDS011;6282;51.440;6.938;2022-08-21T09:53:43;1999.90;;;999.90;;
12435;SDS011;6282;51.440;6.938;2022-08-21T09:56:18;1999.90;;;999.90;;
12435;SDS011;6282;51.440;6.938;2022-08-21T09:59:11;1999.90;;;999.90;;
12435;SDS011;6282;51.440;6.938;2022-08-21T10:01:42;1999.90;;;999.90;;
12435;SDS011;6282;51.440;6.938;2022-08-21T10:04:10;1999.90;;;999.90;;
12435;SDS011;6282;51.440;6.938;2022-08-21T10:06:39;1999.90;;;999.90;;
12435;SDS011;6282;51.440;6.938;2022-08-21T10:09:07;1999.90;;;999.90;;
12435;SDS011;6282;51.440;6.938;2022-08-21T10:11:36;1999.90;;;999.90;;
12435;SDS011;6282;51.440;6.938;2022-08-21T10:14:13;1999.90;;;999.90;;
12435;SDS011;6282;51.440;6.938;2022-08-21T10:16:52;1999.90;;;999.90;;
12435;SDS011;6282;51.440;6.938;2022-08-21T10:19:26;1999.90;;;999.90;;
12435;SDS011;6282;51.440;6.938;2022-08-21T10:22:06;1999.90;;;999.90;;
12435;SDS011;6282;51.440;6.938;2022-08-21T10:24:44;1999.90;;;999.90;;
12435;SDS011;6282;51.440;6.938;2022-08-21T10:27:26;1999.90;;;999.90;;
12435;SDS011;6282;51.440;6.938;2022-08-21T10:30:03;1999.90;;;999.90;;
12435;SDS011;6282;51.440;6.938;2022-08-21T10:32:39;1999.90;;;999.90;;
12435;SDS011;6282;51.440;6.938;2022-08-21T10:35:17;1999.90;;;999.90;;
12435;SDS011;6282;51.440;6.938;2022-08-21T10:37:55;1999.90;;;999.90;;
12435;SDS011;6282;51.440;6.938;2022-08-21T10:40:36;1999.90;;;999.90;;
12435;SDS011;6282;51.440;6.938;2022-08-21T10:43:10;1999.90;;;999.90;;
12435;SDS011;6282;51.440;6.938;2022-08-21T10:45:50;1999.90;;;999.90;;
12435;SDS011;6282;51.440;6.938;2022-08-21T10:48:24;1999.90;;;999.90;;
12435;SDS011;6282;51.440;6.938;2022-08-21T10:50:55;1999.90;;;999.90;;
12435;SDS011;6282;51.440;6.938;2022-08-21T10:53:34;1999.90;;;999.90;;
12435;SDS011;6282;51.440;6.938;2022-08-21T10:56:10;1999.90;;;999.90;;
12435;SDS011;6282;51.440;6.938;2022-08-21T10:58:45;1999.90;;;999.90;;
12435;SDS011;6282;51.440;6.938;2022-08-21T11:01:19;1999.90;;;999.90;;
12435;SDS011;6282;51.440;6.938;2022-08-21T11:03:53;1999.90;;;999.90;;
12435;SDS011;6282;51.440;6.938;2022-08-21T11:06:29;1999.90;;;999.90;;
12435;SDS011;6282;51.440;6.938;2022-08-21T11:09:03;1999.90;;;999.90;;
12435;SDS011;6282;51.440;6.938;2022-08-21T11:11:38;1999.90;;;999.90;;
12435;SDS011;6282;51.440;6.938;2022-08-21T11:14:11;1999.90;;;999.90;;
12435;SDS011;6282;51.440;6.938;2022-08-21T11:16:43;1999.90;;;999.90;;
12435;SDS011;6282;51.440;6.938;2022-08-21T11:19:15;1999.90;;;999.90;;
12435;SDS011;6282;51.440;6.938;2022-08-21T11:24:30;1999.90;;;999.90;;
12435;SDS011;6282;51.440;6.938;2022-08-21T11:27:08;1999.90;;;999.90;;
12435;SDS011;6282;51.440;6.938;2022-08-21T11:29:48;1999.90;;;999.90;;
12435;SDS011;6282;51.440;6.938;2022-08-21T11:32:24;1999.90;;;999.90;;
12435;SDS011;6282;51.440;6.938;2022-08-21T11:35:07;1999.90;;;999.90;;
12435;SDS011;6282;51.440;6.938;2022-08-21T11:37:47;1999.90;;;999.90;;
12435;SDS011;6282;51.440;6.938;2022-08-21T11:40:31;1999.90;;;999.90;;
12435;SDS011;6282;51.440;6.938;2022-08-21T11:43:08;1999.90;;;999.90;;
12435;SDS011;6282;51.440;6.938;2022-08-21T11:45:39;1999.90;;;999.90;;
12435;SDS011;6282;51.440;6.938;2022-08-21T11:48:12;1999.90;;;999.90;;
12435;SDS011;6282;51.440;6.938;2022-08-21T11:50:47;1999.90;;;999.90;;
12435;SDS011;6282;51.440;6.938;2022-08-21T11:53:16;1999.90;;;999.90;;
12435;SDS011;6282;51.440;6.938;2022-08-21T11:55:50;1999.90;;;999.90;;
12435;SDS011;6282;51.440;6.938;2022-08-21T11:58:23;1999.90;;;999.90;;
12435;SDS011;6282;51.440;6.938;2022-08-21T12:00:54;1999.90;;;999.90;;
12435;SDS011;6282;51.440;6.938;2022-08-21T12:03:25;1999.90;;;999.90;;
12435;SDS011;6282;51.440;6.938;2022-08-21T12:05:56;1999.90;;;999.90;;
12435;SDS011;6282;51.440;6.938;2022-08-21T12:08:26;1999.90;;;999.90;;
12435;SDS011;6282;51.440;6.938;2022-08-21T12:11:01;1999.90;;;999.90;;
12435;SDS011;6282;51.440;6.938;2022-08-21T12:13:31;1999.90;;;999.90;;
12435;SDS011;6282;51.440;6.938;2022-08-21T12:16:06;1999.90;;;999.90;;
12435;SDS011;6282;51.440;6.938;2022-08-21T12:18:34;1999.90;;;999.90;;
12435;SDS011;6282;51.440;6.938;2022-08-21T12:21:05;1999.90;;;999.90;;
12435;SDS011;6282;51.440;6.938;2022-08-21T12:23:44;1999.90;;;999.90;;
12435;SDS011;6282;51.440;6.938;2022-08-21T12:26:18;1999.90;;;999.90;;
12435;SDS011;6282;51.440;6.938;2022-08-21T12:29:02;1999.90;;;999.90;;
12435;SDS011;6282;51.440;6.938;2022-08-21T12:31:30;1999.90;;;999.90;;
12435;SDS011;6282;51.440;6.938;2022-08-21T12:36:40;1999.90;;;999.90;;
12435;SDS011;6282;51.440;6.938;2022-08-21T12:39:12;1999.90;;;999.90;;
12435;SDS011;6282;51.440;6.938;2022-08-21T12:41:47;1999.90;;;999.90;;
12435;SDS011;6282;51.440;6.938;2022-08-21T12:44:17;1999.90;;;999.90;;
12435;SDS011;6282;51.440;6.938;2022-08-21T12:46:50;1999.90;;;999.90;;
12435;SDS011;6282;51.440;6.938;2022-08-21T12:49:22;1999.90;;;999.90;;
12435;SDS011;6282;51.440;6.938;2022-08-21T12:51:54;1999.90;;;999.90;;
12435;SDS011;6282;51.440;6.938;2022-08-21T12:54:28;1999.90;;;999.90;;
12435;SDS011;6282;51.440;6.938;2022-08-21T12:57:00;1999.90;;;999.90;;
12435;SDS011;6282;51.440;6.938;2022-08-21T12:59:28;1999.90;;;999.90;;
12435;SDS011;6282;51.440;6.938;2022-08-21T13:01:56;1999.90;;;999.90;;
12435;SDS011;6282;51.440;6.938;2022-08-21T13:04:32;1999.90;;;999.90;;
12435;SDS011;6282;51.440;6.938;2022-08-21T13:07:05;1999.90;;;999.90;;
12435;SDS011;6282;51.440;6.938;2022-08-21T13:09:36;1999.90;;;999.90;;
12435;SDS011;6282;51.440;6.938;2022-08-21T13:12:10;1999.90;;;999.90;;
12435;SDS011;6282;51.440;6.938;2022-08-21T13:14:39;1999.90;;;999.90;;
12435;SDS011;6282;51.440;6.938;2022-08-21T13:17:09;1999.90;;;999.90;;
12435;SDS011;6282;51.440;6.938;2022-08-21T13:19:37;1999.90;;;999.90;;
12435;SDS011;6282;51.440;6.938;2022-08-21T13:22:05;1999.90;;;999.90;;
12435;SDS011;6282;51.440;6.938;2022-08-21T13:24:39;1999.90;;;999.90;;
12435;SDS011;6282;51.440;6.938;2022-08-21T13:27:16;1999.90;;;999.90;;
12435;SDS011;6282;51.440;6.938;2022-08-21T13:29:49;1999.90;;;999.90;;
12435;SDS011;6282;51.440;6.938;2022-08-21T13:32:28;1999.90;;;999.90;;
12435;SDS011;6282;51.440;6.938;2022-08-21T13:34:59;1999.90;;;999.90;;
12435;SDS011;6282;51.440;6.938;2022-08-21T13:37:35;1999.90;;;999.90;;
12435;SDS011;6282;51.440;6.938;2022-08-21T13:40:06;1999.90;;;999.90;;
12435;SDS011;6282;51.440;6.938;2022-08-21T13:42:37;1999.90;;;999.90;;
12435;SDS011;6282;51.440;6.938;2022-08-21T13:45:10;1999.90;;;999.90;;
12435;SDS011;6282;51.440;6.938;2022-08-21T13:47:40;1999.90;;;999.90;;
12435;SDS011;6282;51.440;6.938;2022-08-21T13:50:08;1999.90;;;999.90;;
12435;SDS011;6282;51.440;6.938;2022-08-21T13:52:44;1999.90;;;999.90;;
12435;SDS011;6282;51.440;6.938;2022-08-21T13:55:16;1999.90;;;999.90;;
12435;SDS011;6282;51.440;6.938;2022-08-21T13:57:44;1999.90;;;999.90;;
12435;SDS011;6282;51.440;6.938;2022-08-21T14:00:13;1999.90;;;999.90;;
12435;SDS011;6282;51.440;6.938;2022-08-21T14:02:43;1999.90;;;999.90;;
12435;SDS011;6282;51.440;6.938;2022-08-21T14:05:16;1999.90;;;999.90;;
12435;SDS011;6282;51.440;6.938;2022-08-21T14:07:46;1999.90;;;999.90;;
12435;SDS011;6282;51.440;6.938;2022-08-21T14:10:17;1999.90;;;999.90;;
12435;SDS011;6282;51.440;6.938;2022-08-21T14:12:48;1999.90;;;999.90;;
12435;SDS011;6282;51.440;6.938;2022-08-21T14:15:19;1999.90;;;999.90;;
12435;SDS011;6282;51.440;6.938;2022-08-21T14:17:53;1999.90;;;999.90;;
12435;SDS011;6282;51.440;6.938;2022-08-21T14:20:26;1999.90;;;999.90;;